Nearby METAR Reports

 

CYKA - Kamloops Airport
Distance from station: SSW 65km
Updated: 2021-03-07 21:00
Overcast
Overcast
 Wind from W
Wind: W 26 km/h, Gust: 37 km/h
Temperature: 6°C
Wind Chill: 2°C
Dew Point: -6°C
Humidity: 42%
Barometer: 1017.3 hPa
Clouds: Overcast
Visibility: 64 km
Cloud details: Overcast 4877 m
2021/03/08 05:00 CYKA 080500Z 28014G20KT 40SM OVC160 06/M06 A3004 RMK AC8 SLP187
CWSL - Salmon Arm Autob
Distance from station: SE 90km
Updated: 2021-03-07 21:00

 Wind from ESE
Wind: ESE 4 km/h
Temperature: 2°C
Dew Point: -2°C
Humidity: 75%
2021/03/08 05:00 CWSL 080500Z AUTO 11002KT 02/M02 RMK AO1 SLP200 T00221015 51019
 
CYIN - Bleibler Ranch
Distance from station: W 103km
Updated: 2021-03-07 21:00
Mostly cloudy
Mostly cloudy
 Wind from WSW
Wind: WSW 11 km/h
Temperature: 0°C
Wind Chill: -4°C
Dew Point: -12°C
Humidity: 40%
Barometer: 1012.9 hPa
Clouds: Mostly cloudy
Visibility: 14 km
Cloud details: Mostly cloudy 4267 m
Mostly cloudy 4877 m
2021/03/08 05:00 CYIN 080500Z AUTO 24006KT 190V270 9SM BKN140 BKN160 M00/M12 A2991 RMK SLP166
CYCP - Blue River (man)
Distance from station: NNE 116km
Updated: 2021-03-07 16:00
NOT Current
Mostly cloudy
Mostly cloudy
 Wind from varies
Wind: varies 4 km/h
Temperature: 4°C
Dew Point: 0°C
Humidity: 75%
Barometer: 1012.5 hPa
Clouds: Mostly cloudy
Visibility: 24 km
Cloud details: Few Clouds 1219 m
Partly cloudy 2134 m
Mostly cloudy 2743 m
Mostly cloudy 7620 m
2021/03/08 00:00 CYCP 080000Z VRB02KT 15SM FEW040 SCT070TCU BKN090 BKN250 04/M00 A2990 RMK CF1TCU3AC2CI1 CF TR LAST STFD OBS/NEXT 081400Z SLP153
 
CYLW - Kelowna Airport
Distance from station: SSE 157km
Updated: 2021-03-07 21:00
Few Clouds
Few Clouds
 Wind from N
Wind: N 6 km/h
Temperature: -2°C
Dew Point: -3°C
Humidity: 93%
Barometer: 1018.6 hPa
Clouds: Few Clouds
Visibility: 14 km
Cloud details: Few Clouds 3048 m
2021/03/08 05:00 CYLW 080500Z AUTO 01003KT 9SM FEW100 M02/M03 A3008 RMK SLP210
CYWL - Williams Lake Airport
Distance from station: NW 164km
Updated: 2021-03-07 21:00
Mostly cloudy
Mostly cloudy
 Wind from S
Wind: S 6 km/h
Temperature: -1°C
Dew Point: -5°C
Humidity: 75%
Barometer: 1012.9 hPa
Clouds: Mostly cloudy
Visibility: 24 km
Cloud details: Mostly cloudy 5182 m
2021/03/08 05:00 CYWL 080500Z 19003KT 140V200 15SM BKN170 M01/M05 A2991 RMK AC6 SLP166